Time;durP1;ratioP1;P1;durP2;ratioP2;P2;SDS_P1;SDS_P2;PMS_P1;PMS_P2;Temp;Humidity;BMP_temperature;BMP_pressure;BME280_temperature;BME280_humidity;BME280_pressure;Samples;Min_cycle;Max_cycle;Signal;HPM_P1;HPM_P2
2022/02/19 00:00:05;;;;;;;;;;;11.00;90.30;11.50;99852.00;;;;347416;28;83461;-90
2022/02/19 00:00:17;;;;;;;;;;;11.10;90.40;11.60;99852.00;;;;344373;28;90359;-90
2022/02/19 00:00:28;;;;;;;;;;;11.10;90.60;11.60;99860.00;;;;342339;28;83330;-89
2022/02/19 00:00:42;;;;;;;;;;;11.10;90.60;11.50;99860.00;;;;342489;28;91410;-90
2022/02/19 00:00:54;;;;;;;;;;;11.10;90.60;11.50;99857.00;;;;343418;28;83407;-90
2022/02/19 00:01:06;;;;;;;;;;;11.10;90.60;11.50;99863.00;;;;343757;28;91250;-90
2022/02/19 00:01:18;;;;;;;;;;;11.10;90.60;11.60;99853.00;;;;344807;28;83485;-90
2022/02/19 00:01:30;;;;;;;;;;;11.10;90.60;11.60;99860.00;;;;344264;28;90333;-90
2022/02/19 00:01:41;;;;;;;;;;;11.10;90.70;11.50;99852.00;;;;346050;28;83268;-90
2022/02/19 00:01:53;;;;;;;;;;;11.10;90.70;11.50;99863.00;;;;345822;28;87821;-90
2022/02/19 00:02:05;;;;;;;;;;;11.10;90.60;11.40;99858.00;;;;346103;28;83538;-90
2022/02/19 00:02:17;;;;;;;;;;;11.10;90.60;11.40;99852.00;;;;345718;28;91123;-90
2022/02/19 00:02:28;;;;;;;;;;;11.10;90.60;11.50;99855.00;;;;344723;28;82586;-90
2022/02/19 00:02:40;;;;;;;;;;;11.10;90.70;11.50;99857.00;;;;344244;28;90892;-89
2022/02/19 00:02:52;;;;;;;;;;;11.10;90.70;11.50;99847.00;;;;344739;28;83445;-90
2022/02/19 00:03:04;;;;;;;;;;;11.10;90.70;11.50;99853.00;;;;342970;28;90498;-90
2022/02/19 00:03:16;;;;;;;;;;;11.10;90.70;11.50;99854.00;;;;344787;28;82326;-90
2022/02/19 00:03:28;;;;;;;;;;;11.10;90.70;11.40;99852.00;;;;344798;28;90602;-89
2022/02/19 00:03:40;;;;;;;;;;;11.10;90.70;11.50;99854.00;;;;341893;28;83322;-90
2022/02/19 00:03:52;;;;;;;;;;;11.10;90.80;11.50;99852.00;;;;341605;28;91205;-90
2022/02/19 00:04:04;;;;;;;;;;;11.10;90.80;11.50;99859.00;;;;344276;28;83344;-90
2022/02/19 00:04:16;;;;;;;;;;;11.10;90.90;11.50;99858.00;;;;341570;28;91877;-90
2022/02/19 00:04:27;;;;;;;;;;;11.10;90.80;11.50;99856.00;;;;342204;28;82334;-90
2022/02/19 00:04:39;;;;;;;;;;;11.10;90.90;11.60;99847.00;;;;344255;28;91036;-90
2022/02/19 00:04:51;;;;;;;;;;;11.10;91.00;11.50;99862.00;;;;342110;28;83359;-90
2022/02/19 00:05:03;;;;;;;;;;;11.10;90.90;11.50;99855.00;;;;344312;28;91974;-90
2022/02/19 00:05:15;;;;;;;;;;;11.10;90.80;11.60;99856.00;;;;343446;28;83367;-90
2022/02/19 00:05:26;;;;;;;;;;;11.10;90.90;11.50;99854.00;;;;342968;28;91598;-90
2022/02/19 00:05:39;;;;;;;;;;;11.10;90.80;11.40;99860.00;;;;346150;28;83260;-90
2022/02/19 00:05:51;;;;;;;;;;;11.10;90.90;11.40;99859.00;;;;345787;28;91301;-90
2022/02/19 00:06:03;;;;;;;;;;;11.10;90.90;11.30;99859.00;;;;344796;28;83500;-90
2022/02/19 00:06:15;;;;;;;;;;;11.10;90.90;11.30;99857.00;;;;343961;28;91548;-90
2022/02/19 00:06:26;;;;;;;;;;;11.10;90.80;11.20;99860.00;;;;344534;28;83421;-90
2022/02/19 00:06:39;;;;;;;;;;;11.00;90.80;11.20;99861.00;;;;342002;28;92255;-90
2022/02/19 00:06:51;;;;;;;;;;;11.00;90.80;11.40;99858.00;;;;343497;28;82403;-90
2022/02/19 00:07:04;;;;;;;;;;;11.00;91.00;11.50;99859.00;;;;344996;28;91408;-90
2022/02/19 00:07:15;;;;;;;;;;;11.00;91.10;11.50;99861.00;;;;342031;28;83255;-91
2022/02/19 00:07:27;;;;;;;;;;;11.00;91.10;11.50;99862.00;;;;341697;28;89161;-90
2022/02/19 00:07:44;;;;;;;;;;;11.00;91.10;11.50;99869.00;;;;343247;28;82536;-90
2022/02/19 00:07:56;;;;;;;;;;;11.10;91.10;11.60;99859.00;;;;341610;28;90325;-90
2022/02/19 00:08:09;;;;;;;;;;;11.00;91.20;11.60;99856.00;;;;343499;28;82354;-89
2022/02/19 00:08:22;;;;;;;;;;;11.10;91.20;11.60;99863.00;;;;344214;28;91468;-90
2022/02/19 00:08:33;;;;;;;;;;;11.10;91.30;11.60;99865.00;;;;344731;28;83447;-90
2022/02/19 00:08:45;;;;;;;;;;;11.10;91.30;11.70;99867.00;;;;344317;28;91266;-90
2022/02/19 00:08:58;;;;;;;;;;;11.10;91.20;11.60;99862.00;;;;343223;28;83382;-90
2022/02/19 00:09:09;;;;;;;;;;;11.10;91.10;11.50;99869.00;;;;341551;28;91890;-90
2022/02/19 00:09:21;;;;;;;;;;;11.10;90.90;11.60;99864.00;;;;343457;28;83241;-90
2022/02/19 00:09:33;;;;;;;;;;;11.10;90.90;11.60;99872.00;;;;343360;28;91412;-90
2022/02/19 00:09:45;;;;;;;;;;;11.10;91.00;11.60;99876.00;;;;343693;28;84045;-90
2022/02/19 00:09:57;;;;;;;;;;;11.10;91.30;11.60;99867.00;;;;344148;28;90603;-89
2022/02/19 00:10:09;;;;;;;;;;;11.10;91.00;11.50;99870.00;;;;343422;28;83293;-90
2022/02/19 00:10:21;;;;;;;;;;;11.20;91.00;11.50;99868.00;;;;342880;28;91448;-90
2022/02/19 00:10:32;;;;;;;;;;;11.10;90.90;11.40;99865.00;;;;343373;28;82530;-90
2022/02/19 00:10:45;;;;;;;;;;;11.10;90.90;11.40;99867.00;;;;341508;28;92466;-90
2022/02/19 00:10:57;;;;;;;;;;;11.10;90.90;11.40;99870.00;;;;343358;28;83382;-90
2022/02/19 00:11:09;;;;;;;;;;;11.10;90.90;11.40;99857.00;;;;342945;28;89408;-90
2022/02/19 00:11:20;;;;;;;;;;;11.10;90.80;11.40;99870.00;;;;343409;28;83321;-90
2022/02/19 00:11:32;;;;;;;;;;;11.10;90.80;11.50;99861.00;;;;342876;28;90319;-90
2022/02/19 00:11:44;;;;;;;;;;;11.10;90.80;11.60;99860.00;;;;344771;28;82452;-89
2022/02/19 00:11:56;;;;;;;;;;;11.10;90.90;11.60;99870.00;;;;341645;28;89927;-90
2022/02/19 00:12:08;;;;;;;;;;;11.10;90.80;11.40;99864.00;;;;344816;28;83297;-90
2022/02/19 00:12:20;;;;;;;;;;;11.10;90.50;11.30;99864.00;;;;341480;28;90534;-90
2022/02/19 00:12:32;;;;;;;;;;;11.10;90.20;11.40;99867.00;;;;345000;28;83531;-90
2022/02/19 00:12:43;;;;;;;;;;;11.10;90.30;11.50;99862.00;;;;345481;28;93181;-90
2022/02/19 00:12:55;;;;;;;;;;;11.10;90.40;11.50;99861.00;;;;343427;28;83418;-90
2022/02/19 00:13:07;;;;;;;;;;;11.10;90.60;11.60;99862.00;;;;341557;28;91912;-90
2022/02/19 00:13:19;;;;;;;;;;;11.10;90.70;11.60;99867.00;;;;343245;28;82549;-90
2022/02/19 00:13:31;;;;;;;;;;;11.10;90.80;11.60;99862.00;;;;344519;28;91072;-90
2022/02/19 00:13:43;;;;;;;;;;;11.10;90.80;11.60;99864.00;;;;346082;28;82457;-90
2022/02/19 00:13:55;;;;;;;;;;;11.10;90.60;11.50;99862.00;;;;347129;28;90235;-90
2022/02/19 00:14:07;;;;;;;;;;;11.10;90.50;11.50;99867.00;;;;346150;28;82356;-90
2022/02/19 00:14:19;;;;;;;;;;;11.10;90.50;11.60;99863.00;;;;342854;28;91576;-90
2022/02/19 00:14:31;;;;;;;;;;;11.10;90.60;11.60;99869.00;;;;344798;28;82329;-89
2022/02/19 00:14:42;;;;;;;;;;;11.10;90.60;11.60;99864.00;;;;343961;28;92510;-90
2022/02/19 00:14:55;;;;;;;;;;;11.10;90.70;11.60;99862.00;;;;343408;28;83343;-90
2022/02/19 00:15:07;;;;;;;;;;;11.10;90.60;11.60;99867.00;;;;347157;28;88604;-90
2022/02/19 00:15:19;;;;;;;;;;;11.10;90.60;11.60;99870.00;;;;344765;28;83374;-90
2022/02/19 00:15:30;;;;;;;;;;;11.20;90.60;11.70;99875.00;;;;342584;28;91577;-90
2022/02/19 00:15:42;;;;;;;;;;;11.20;90.60;11.70;99869.00;;;;345949;28;82562;-90
2022/02/19 00:15:54;;;;;;;;;;;11.20;90.60;11.50;99874.00;;;;344350;28;90287;-90
2022/02/19 00:16:06;;;;;;;;;;;11.20;90.60;11.50;99862.00;;;;342067;28;83347;-90
2022/02/19 00:16:18;;;;;;;;;;;11.20;90.40;11.50;99869.00;;;;342907;28;92246;-90
2022/02/19 00:16:30;;;;;;;;;;;11.20;90.50;11.50;99873.00;;;;343415;28;83401;-90
2022/02/19 00:16:41;;;;;;;;;;;11.20;90.50;11.60;99873.00;;;;342898;28;92211;-90
2022/02/19 00:16:53;;;;;;;;;;;11.20;90.50;11.60;99875.00;;;;344798;28;83276;-90
2022/02/19 00:17:05;;;;;;;;;;;11.20;90.50;11.70;99868.00;;;;344268;28;92177;-90
2022/02/19 00:17:17;;;;;;;;;;;11.20;90.50;11.70;99873.00;;;;343355;28;83478;-90
2022/02/19 00:17:29;;;;;;;;;;;11.20;90.40;11.60;99867.00;;;;344349;28;91331;-90
2022/02/19 00:17:41;;;;;;;;;;;11.20;90.40;11.50;99873.00;;;;341681;28;83995;-90
2022/02/19 00:17:54;;;;;;;;;;;11.20;90.40;11.50;99867.00;;;;341620;28;91338;-90
2022/02/19 00:18:06;;;;;;;;;;;11.20;90.30;11.60;99865.00;;;;340761;28;83446;-90
2022/02/19 00:18:17;;;;;;;;;;;11.20;90.40;11.60;99865.00;;;;342898;28;89109;-90
2022/02/19 00:18:29;;;;;;;;;;;11.20;90.40;11.70;99863.00;;;;343364;28;82549;-90
2022/02/19 00:18:41;;;;;;;;;;;11.20;90.40;11.60;99878.00;;;;343780;28;91300;-90
2022/02/19 00:18:53;;;;;;;;;;;11.20;90.20;11.60;99874.00;;;;344641;28;82462;-90
2022/02/19 00:19:04;;;;;;;;;;;11.20;90.00;11.60;99874.00;;;;342578;28;91983;-91
2022/02/19 00:19:16;;;;;;;;;;;11.20;90.10;11.60;99868.00;;;;344787;28;83398;-90
2022/02/19 00:19:28;;;;;;;;;;;11.20;90.30;11.60;99875.00;;;;342952;28;92057;-90
2022/02/19 00:19:40;;;;;;;;;;;11.20;90.20;11.60;99875.00;;;;344701;28;83355;-90
2022/02/19 00:19:54;;;;;;;;;;;11.20;90.00;11.50;99876.00;;;;341624;28;91684;-90
2022/02/19 00:20:10;;;;;;;;;;;11.20;90.00;11.50;99876.00;;;;343401;28;83485;-90
2022/02/19 00:20:22;;;;;;;;;;;11.20;90.00;11.50;99880.00;;;;342853;28;91853;-90
2022/02/19 00:20:33;;;;;;;;;;;11.20;90.00;11.50;99875.00;;;;344703;28;83280;-90
2022/02/19 00:20:45;;;;;;;;;;;11.20;89.80;11.50;99877.00;;;;342683;28;91373;-90
2022/02/19 00:20:57;;;;;;;;;;;11.20;89.90;11.50;99876.00;;;;341947;28;83478;-90
2022/02/19 00:21:08;;;;;;;;;;;11.20;90.00;11.50;99865.00;;;;344406;28;89232;-89
2022/02/19 00:21:20;;;;;;;;;;;11.20;90.00;11.60;99871.00;;;;342947;28;83797;-90
2022/02/19 00:21:32;;;;;;;;;;;11.20;90.00;11.60;99864.00;;;;343491;28;91730;-90
2022/02/19 00:21:44;;;;;;;;;;;11.20;90.00;11.60;99871.00;;;;344655;28;83414;-90
2022/02/19 00:21:56;;;;;;;;;;;11.20;90.00;11.60;99878.00;;;;343063;28;91462;-90
2022/02/19 00:22:07;;;;;;;;;;;11.20;90.00;11.60;99872.00;;;;344767;28;83433;-90
2022/02/19 00:22:19;;;;;;;;;;;11.20;90.00;11.60;99864.00;;;;341585;28;90492;-90
2022/02/19 00:22:31;;;;;;;;;;;11.20;89.50;11.60;99875.00;;;;343695;28;83417;-90
2022/02/19 00:22:43;;;;;;;;;;;11.20;89.50;11.60;99875.00;;;;344241;28;91647;-90
2022/02/19 00:22:55;;;;;;;;;;;11.20;89.70;11.70;99872.00;;;;343355;28;83187;-90
2022/02/19 00:23:07;;;;;;;;;;;11.20;89.70;11.70;99876.00;;;;345758;28;91230;-90
2022/02/19 00:23:18;;;;;;;;;;;11.20;89.90;11.60;99871.00;;;;344675;28;83368;-91
2022/02/19 00:23:30;;;;;;;;;;;11.20;90.00;11.60;99873.00;;;;341617;28;91142;-90
2022/02/19 00:23:42;;;;;;;;;;;11.20;90.00;11.60;99873.00;;;;341925;28;83301;-90
2022/02/19 00:23:54;;;;;;;;;;;11.20;90.00;11.50;99871.00;;;;342988;28;91480;-89
2022/02/19 00:24:08;;;;;;;;;;;11.20;89.60;11.50;99870.00;;;;344527;28;83579;-90
2022/02/19 00:24:20;;;;;;;;;;;11.20;89.70;11.50;99874.00;;;;345587;28;90324;-90
2022/02/19 00:24:32;;;;;;;;;;;11.20;89.80;11.40;99872.00;;;;344273;28;82687;-90
2022/02/19 00:24:44;;;;;;;;;;;11.20;89.30;11.30;99878.00;;;;344160;28;91591;-90
2022/02/19 00:24:57;;;;;;;;;;;11.10;89.10;11.40;99879.00;;;;346095;28;83409;-90
2022/02/19 00:25:09;;;;;;;;;;;11.10;89.50;11.50;99883.00;;;;344309;28;90167;-90
2022/02/19 00:25:21;;;;;;;;;;;11.10;89.70;11.50;99875.00;;;;347517;28;82570;-90
2022/02/19 00:25:33;;;;;;;;;;;11.10;90.00;11.60;99879.00;;;;344970;28;91249;-90
2022/02/19 00:25:45;;;;;;;;;;;11.10;90.10;11.40;99880.00;;;;343268;28;83539;-90
2022/02/19 00:25:57;;;;;;;;;;;11.10;89.90;11.40;99878.00;;;;344279;28;91325;-90
2022/02/19 00:26:09;;;;;;;;;;;11.10;89.70;11.40;99880.00;;;;343465;28;83361;-90
2022/02/19 00:26:21;;;;;;;;;;;11.10;89.70;11.30;99875.00;;;;344116;28;89822;-90
2022/02/19 00:26:34;;;;;;;;;;;11.10;89.60;11.40;99874.00;;;;341861;28;82688;-90
2022/02/19 00:26:46;;;;;;;;;;;11.10;89.90;11.30;99878.00;;;;342946;28;91147;-90
2022/02/19 00:26:58;;;;;;;;;;;11.00;89.40;11.20;99877.00;;;;344705;28;83485;-90
2022/02/19 00:27:10;;;;;;;;;;;11.00;89.40;11.20;99887.00;;;;344389;28;91093;-90
2022/02/19 00:27:22;;;;;;;;;;;11.00;89.60;11.20;99885.00;;;;344763;28;82602;-90
2022/02/19 00:27:34;;;;;;;;;;;11.00;89.90;11.30;99883.00;;;;342685;28;90945;-90
2022/02/19 00:27:46;;;;;;;;;;;11.00;90.10;11.20;99882.00;;;;346143;28;83407;-90
2022/02/19 00:27:58;;;;;;;;;;;11.00;90.10;11.30;99877.00;;;;344164;28;91734;-90
2022/02/19 00:28:09;;;;;;;;;;;11.00;90.20;11.30;99889.00;;;;343494;28;83350;-89
2022/02/19 00:28:22;;;;;;;;;;;11.00;90.20;11.30;99876.00;;;;342964;28;90100;-90
2022/02/19 00:28:34;;;;;;;;;;;11.00;90.30;11.20;99883.00;;;;346053;28;83517;-90
2022/02/19 00:28:46;;;;;;;;;;;11.00;90.20;11.30;99879.00;;;;344202;28;92389;-90
2022/02/19 00:28:57;;;;;;;;;;;11.00;90.20;11.40;99886.00;;;;342008;28;83412;-90
2022/02/19 00:29:09;;;;;;;;;;;11.00;90.20;11.40;99880.00;;;;342899;28;92164;-89
2022/02/19 00:29:23;;;;;;;;;;;11.00;90.20;11.40;99872.00;;;;346177;28;83440;-89
2022/02/19 00:29:35;;;;;;;;;;;11.00;90.20;11.40;99878.00;;;;342740;28;90557;-90
2022/02/19 00:29:47;;;;;;;;;;;11.00;90.20;11.40;99879.00;;;;344579;28;83286;-89
2022/02/19 00:29:59;;;;;;;;;;;11.00;90.30;11.40;99870.00;;;;344145;28;91373;-90
2022/02/19 00:30:11;;;;;;;;;;;11.00;90.30;11.40;99885.00;;;;343407;28;83254;-90
2022/02/19 00:30:23;;;;;;;;;;;11.00;90.30;11.40;99880.00;;;;344261;28;91529;-90
2022/02/19 00:30:35;;;;;;;;;;;11.00;90.30;11.40;99873.00;;;;346588;28;82644;-89
2022/02/19 00:30:46;;;;;;;;;;;11.00;90.20;11.40;99876.00;;;;342774;28;90801;-90
2022/02/19 00:30:58;;;;;;;;;;;11.00;90.20;11.40;99884.00;;;;344622;28;83337;-90
2022/02/19 00:31:10;;;;;;;;;;;11.00;90.20;11.40;99883.00;;;;344313;28;91518;-90
2022/02/19 00:31:23;;;;;;;;;;;11.00;90.30;11.40;99875.00;;;;343335;28;82543;-89
2022/02/19 00:31:35;;;;;;;;;;;11.00;90.20;11.40;99885.00;;;;343177;28;91357;-90
2022/02/19 00:31:47;;;;;;;;;;;11.00;90.10;11.30;99877.00;;;;343445;28;83494;-89
2022/02/19 00:31:59;;;;;;;;;;;11.00;90.10;11.40;99875.00;;;;344135;28;90625;-88
2022/02/19 00:32:10;;;;;;;;;;;11.00;90.10;11.40;99877.00;;;;344467;28;83325;-89
2022/02/19 00:32:22;;;;;;;;;;;11.00;90.20;11.40;99879.00;;;;345378;28;91788;-90
2022/02/19 00:32:34;;;;;;;;;;;11.00;90.20;11.40;99881.00;;;;344188;28;83913;-90
2022/02/19 00:32:46;;;;;;;;;;;11.00;90.10;11.40;99871.00;;;;344071;28;91279;-89
2022/02/19 00:32:57;;;;;;;;;;;11.00;90.10;11.40;99875.00;;;;344560;28;83339;-90
2022/02/19 00:33:09;;;;;;;;;;;11.00;90.10;11.40;99882.00;;;;344324;28;92256;-90
2022/02/19 00:33:23;;;;;;;;;;;11.00;90.20;11.40;99881.00;;;;343406;28;82906;-90
2022/02/19 00:33:35;;;;;;;;;;;11.00;90.20;11.40;99877.00;;;;345254;28;88842;-90
2022/02/19 00:33:46;;;;;;;;;;;11.00;90.20;11.30;99872.00;;;;343857;28;82550;-90
2022/02/19 00:33:58;;;;;;;;;;;11.00;90.30;11.30;99883.00;;;;344499;28;91350;-90
2022/02/19 00:34:10;;;;;;;;;;;11.00;90.20;11.20;99884.00;;;;343379;28;83448;-90
2022/02/19 00:34:22;;;;;;;;;;;11.00;90.10;11.30;99872.00;;;;344319;28;91636;-90
2022/02/19 00:34:33;;;;;;;;;;;11.00;90.20;11.20;99884.00;;;;343808;28;83434;-90
2022/02/19 00:34:45;;;;;;;;;;;11.00;90.10;11.30;99880.00;;;;341510;28;92873;-90
2022/02/19 00:34:58;;;;;;;;;;;11.00;90.20;11.30;99885.00;;;;343288;28;83367;-90
2022/02/19 00:35:09;;;;;;;;;;;11.00;90.20;11.20;99886.00;;;;344311;28;90939;-90
2022/02/19 00:35:22;;;;;;;;;;;10.90;90.10;11.20;99885.00;;;;344669;28;83198;-90
2022/02/19 00:35:34;;;;;;;;;;;10.90;90.10;11.20;99883.00;;;;344293;28;90323;-90
2022/02/19 00:35:47;;;;;;;;;;;10.90;90.20;11.20;99884.00;;;;346087;28;83496;-90
2022/02/19 00:35:59;;;;;;;;;;;10.90;90.20;11.30;99884.00;;;;344311;28;90450;-90
2022/02/19 00:36:11;;;;;;;;;;;10.90;90.20;11.30;99884.00;;;;343391;28;83385;-90
2022/02/19 00:36:23;;;;;;;;;;;10.90;90.30;11.30;99884.00;;;;344078;28;91297;-90
2022/02/19 00:36:35;;;;;;;;;;;10.90;90.30;11.30;99891.00;;;;345604;28;82599;-90
2022/02/19 00:36:46;;;;;;;;;;;10.90;90.40;11.30;99888.00;;;;342822;28;92333;-90
2022/02/19 00:36:59;;;;;;;;;;;10.90;90.30;11.20;99889.00;;;;344688;28;83387;-90
2022/02/19 00:37:10;;;;;;;;;;;10.90;90.30;11.30;99882.00;;;;342939;28;90348;-90
2022/02/19 00:37:22;;;;;;;;;;;10.90;90.30;11.30;99891.00;;;;342097;28;82489;-90
2022/02/19 00:37:34;;;;;;;;;;;10.90;90.30;11.20;99894.00;;;;342214;28;90302;-90
2022/02/19 00:37:46;;;;;;;;;;;10.90;90.30;11.20;99887.00;;;;344663;28;83396;-90
2022/02/19 00:37:57;;;;;;;;;;;10.90;90.30;11.30;99889.00;;;;344303;28;90826;-90
2022/02/19 00:38:09;;;;;;;;;;;10.90;90.30;11.30;99896.00;;;;344738;28;83211;-90
2022/02/19 00:38:21;;;;;;;;;;;10.90;90.30;11.30;99884.00;;;;344369;28;91554;-90
2022/02/19 00:38:33;;;;;;;;;;;10.90;90.40;11.30;99896.00;;;;343166;28;82307;-90
2022/02/19 00:38:44;;;;;;;;;;;10.90;90.30;11.30;99890.00;;;;344328;28;89757;-90
2022/02/19 00:38:56;;;;;;;;;;;10.90;90.40;11.30;99894.00;;;;343376;28;83422;-90
2022/02/19 00:39:08;;;;;;;;;;;10.90;90.40;11.20;99890.00;;;;340263;28;91447;-90
2022/02/19 00:39:20;;;;;;;;;;;10.90;90.40;11.30;99884.00;;;;343326;28;83451;-90
2022/02/19 00:39:31;;;;;;;;;;;10.90;90.40;11.20;99886.00;;;;345245;28;91582;-90
2022/02/19 00:39:43;;;;;;;;;;;10.90;90.30;11.30;99881.00;;;;345878;28;83287;-90
2022/02/19 00:39:55;;;;;;;;;;;10.90;90.40;11.20;99890.00;;;;347115;28;91418;-89
2022/02/19 00:40:08;;;;;;;;;;;10.90;90.40;11.20;99893.00;;;;344729;28;83534;-90
2022/02/19 00:40:20;;;;;;;;;;;10.90;90.30;11.10;99892.00;;;;344317;28;90548;-90
2022/02/19 00:40:31;;;;;;;;;;;10.90;90.30;11.20;99893.00;;;;342908;28;83359;-90
2022/02/19 00:40:47;;;;;;;;;;;10.90;90.30;11.20;99893.00;;;;342776;28;93246;-90
2022/02/19 00:40:59;;;;;;;;;;;10.90;90.40;11.30;99891.00;;;;343199;28;83545;-90
2022/02/19 00:41:11;;;;;;;;;;;10.90;90.50;11.30;99889.00;;;;344231;28;91578;-90
2022/02/19 00:41:22;;;;;;;;;;;10.90;90.50;11.30;99882.00;;;;344746;28;83216;-90
2022/02/19 00:41:37;;;;;;;;;;;10.90;90.50;11.30;99884.00;;;;339820;28;91324;-89
2022/02/19 00:41:49;;;;;;;;;;;10.90;90.50;11.30;99899.00;;;;343208;28;83539;-90
2022/02/19 00:42:02;;;;;;;;;;;10.90;90.40;11.40;99889.00;;;;344397;28;89143;-90
2022/02/19 00:42:14;;;;;;;;;;;10.90;90.50;11.30;99891.00;;;;346172;28;83350;-90
2022/02/19 00:42:26;;;;;;;;;;;10.90;90.50;11.30;99898.00;;;;342859;28;92352;-89
2022/02/19 00:42:38;;;;;;;;;;;10.90;90.50;11.30;99896.00;;;;344081;28;82435;-90
2022/02/19 00:42:50;;;;;;;;;;;10.90;90.40;11.20;99899.00;;;;344233;28;94508;-90
2022/02/19 00:43:02;;;;;;;;;;;10.90;90.40;11.30;99895.00;;;;344675;28;83334;-89
2022/02/19 00:43:14;;;;;;;;;;;10.90;90.40;11.30;99897.00;;;;345696;28;91339;-89
2022/02/19 00:43:25;;;;;;;;;;;10.90;90.40;11.30;99896.00;;;;344852;28;83260;-89
2022/02/19 00:43:37;;;;;;;;;;;10.90;90.40;11.30;99893.00;;;;342871;28;91248;-90
2022/02/19 00:43:51;;;;;;;;;;;10.90;90.40;11.20;99884.00;;;;343330;28;82555;-90
2022/02/19 00:44:03;;;;;;;;;;;10.90;90.40;11.10;99896.00;;;;345555;28;90419;-89
2022/02/19 00:44:15;;;;;;;;;;;10.90;90.60;11.20;99897.00;;;;344811;28;83365;-90
2022/02/19 00:44:28;;;;;;;;;;;10.90;90.60;11.30;99890.00;;;;342686;28;90584;-90
2022/02/19 00:44:40;;;;;;;;;;;10.90;90.50;11.20;99892.00;;;;343136;28;83931;-90
2022/02/19 00:44:51;;;;;;;;;;;10.90;90.50;11.20;99892.00;;;;341507;28;93263;-90
2022/02/19 00:45:04;;;;;;;;;;;10.90;90.40;11.00;99890.00;;;;343302;28;82344;-90
2022/02/19 00:45:15;;;;;;;;;;;10.90;90.40;11.10;99892.00;;;;344321;28;91346;-90
2022/02/19 00:45:27;;;;;;;;;;;10.90;90.40;11.10;99887.00;;;;342014;28;83370;-89
2022/02/19 00:45:39;;;;;;;;;;;10.80;90.40;11.20;99888.00;;;;345026;28;91055;-90
2022/02/19 00:45:51;;;;;;;;;;;10.80;90.60;11.20;99886.00;;;;344570;28;83283;-90
2022/02/19 00:46:03;;;;;;;;;;;10.90;90.70;11.20;99889.00;;;;343812;28;92120;-90
2022/02/19 00:46:15;;;;;;;;;;;10.90;90.70;11.20;99889.00;;;;343295;28;83289;-90
2022/02/19 00:46:27;;;;;;;;;;;10.90;90.70;11.20;99884.00;;;;345695;28;91514;-90
2022/02/19 00:46:38;;;;;;;;;;;10.80;90.70;11.20;99874.00;;;;344702;28;83287;-89
2022/02/19 00:46:50;;;;;;;;;;;10.90;90.70;11.20;99881.00;;;;342854;28;91807;-90
2022/02/19 00:47:02;;;;;;;;;;;10.80;90.70;11.30;99886.00;;;;344588;28;83484;-90
2022/02/19 00:47:14;;;;;;;;;;;10.90;90.70;11.30;99885.00;;;;344301;28;89755;-90
2022/02/19 00:47:31;;;;;;;;;;;10.90;90.70;11.20;99894.00;;;;343452;28;82397;-90
2022/02/19 00:47:43;;;;;;;;;;;10.90;90.60;11.20;99898.00;;;;346927;28;91645;-90
2022/02/19 00:47:54;;;;;;;;;;;10.90;90.60;11.20;99897.00;;;;343382;28;83423;-90
2022/02/19 00:48:06;;;;;;;;;;;10.90;90.70;11.20;99893.00;;;;342970;28;90356;-90
2022/02/19 00:48:18;;;;;;;;;;;10.90;90.70;11.20;99889.00;;;;343410;28;83545;-90
2022/02/19 00:48:50;;;;;;;;;;;10.80;90.70;11.20;99901.00;;;;341601;28;91987;-90
2022/02/19 00:49:03;;;;;;;;;;;10.80;90.70;11.20;99889.00;;;;343146;28;83573;-89
2022/02/19 00:49:14;;;;;;;;;;;10.80;90.80;11.10;99892.00;;;;341536;28;92001;-89
2022/02/19 00:49:27;;;;;;;;;;;10.80;90.80;11.00;99901.00;;;;343455;28;82547;-90
2022/02/19 00:49:38;;;;;;;;;;;10.80;90.70;11.00;99900.00;;;;344342;28;89375;-90
2022/02/19 00:49:50;;;;;;;;;;;10.80;90.70;11.00;99892.00;;;;343458;28;83425;-90
2022/02/19 00:50:02;;;;;;;;;;;10.80;91.00;11.00;99898.00;;;;344290;28;91275;-90
2022/02/19 00:50:14;;;;;;;;;;;10.80;90.80;11.00;99897.00;;;;343360;28;83443;-90
2022/02/19 00:50:26;;;;;;;;;;;10.80;90.80;11.10;99901.00;;;;342931;28;90262;-89
2022/02/19 00:50:37;;;;;;;;;;;10.80;90.80;11.10;99900.00;;;;343405;28;83306;-90
2022/02/19 00:50:49;;;;;;;;;;;10.70;90.80;11.10;99895.00;;;;342924;28;90127;-90
2022/02/19 00:51:01;;;;;;;;;;;10.80;90.90;11.10;99896.00;;;;343331;28;83468;-90
2022/02/19 00:51:13;;;;;;;;;;;10.70;91.00;11.10;99896.00;;;;341378;28;93335;-90
2022/02/19 00:51:24;;;;;;;;;;;10.70;91.00;11.20;99895.00;;;;342050;28;82517;-89
2022/02/19 00:51:36;;;;;;;;;;;10.80;91.00;11.20;99903.00;;;;345230;28;91558;-90
2022/02/19 00:51:48;;;;;;;;;;;10.80;91.10;11.20;99897.00;;;;343392;28;83666;-90
2022/02/19 00:52:00;;;;;;;;;;;10.80;91.10;11.10;99889.00;;;;344094;28;91296;-90
2022/02/19 00:52:12;;;;;;;;;;;10.80;91.00;11.10;99902.00;;;;346013;28;83404;-90
2022/02/19 00:52:23;;;;;;;;;;;10.80;91.00;11.00;99893.00;;;;342887;28;91340;-90
2022/02/19 00:52:35;;;;;;;;;;;10.70;91.00;11.00;99891.00;;;;343019;28;83187;-89
2022/02/19 00:52:47;;;;;;;;;;;10.70;90.90;11.00;99893.00;;;;345642;28;90535;-90
2022/02/19 00:52:59;;;;;;;;;;;10.70;90.90;11.00;99898.00;;;;343372;28;82573;-89
2022/02/19 00:53:10;;;;;;;;;;;10.70;91.00;11.10;99892.00;;;;345498;28;92408;-89
2022/02/19 00:53:22;;;;;;;;;;;10.70;91.10;11.10;99894.00;;;;343342;28;83440;-90
2022/02/19 00:53:34;;;;;;;;;;;10.70;91.10;11.20;99883.00;;;;344212;28;92104;-90
2022/02/19 00:53:46;;;;;;;;;;;10.70;91.10;11.10;99898.00;;;;343365;28;83287;-90
2022/02/19 00:53:58;;;;;;;;;;;10.70;91.10;11.10;99889.00;;;;343010;28;88817;-90
2022/02/19 00:54:10;;;;;;;;;;;10.70;91.10;11.10;99887.00;;;;344701;28;83351;-89
2022/02/19 00:54:22;;;;;;;;;;;10.70;91.10;11.10;99892.00;;;;345373;28;91722;-90
2022/02/19 00:54:34;;;;;;;;;;;10.70;91.10;11.10;99889.00;;;;342974;28;83484;-89
2022/02/19 00:54:45;;;;;;;;;;;10.70;91.10;11.00;99892.00;;;;344140;28;90949;-90
2022/02/19 00:54:58;;;;;;;;;;;10.70;91.00;11.00;99888.00;;;;346002;28;82273;-90
2022/02/19 00:55:09;;;;;;;;;;;10.70;91.00;11.00;99888.00;;;;345586;28;92827;-90
2022/02/19 00:55:22;;;;;;;;;;;10.70;91.00;11.00;99894.00;;;;344717;28;83309;-89
2022/02/19 00:55:34;;;;;;;;;;;10.70;91.00;11.00;99888.00;;;;343905;28;90562;-89
2022/02/19 00:55:45;;;;;;;;;;;10.70;91.00;11.00;99892.00;;;;342999;28;83274;-90
2022/02/19 00:55:57;;;;;;;;;;;10.70;91.00;11.00;99891.00;;;;344088;28;90427;-90
2022/02/19 00:56:09;;;;;;;;;;;10.70;91.00;11.10;99890.00;;;;343413;28;83195;-90
2022/02/19 00:56:21;;;;;;;;;;;10.70;91.10;11.20;99898.00;;;;342686;28;90633;-89
2022/02/19 00:56:33;;;;;;;;;;;10.70;91.10;11.20;99896.00;;;;343330;28;83429;-90
2022/02/19 00:56:44;;;;;;;;;;;10.70;91.20;11.20;99892.00;;;;342926;28;91414;-90
2022/02/19 00:56:56;;;;;;;;;;;10.70;91.30;11.20;99896.00;;;;344714;28;82534;-89
2022/02/19 00:57:09;;;;;;;;;;;10.70;91.30;11.20;99898.00;;;;342794;28;92365;-90
2022/02/19 00:57:21;;;;;;;;;;;10.70;91.30;11.10;99898.00;;;;343309;28;83467;-90
2022/02/19 00:57:33;;;;;;;;;;;10.70;91.30;11.10;99903.00;;;;346509;28;92206;-90
2022/02/19 00:57:45;;;;;;;;;;;10.70;91.20;11.10;99891.00;;;;341919;28;83985;-90
2022/02/19 00:57:56;;;;;;;;;;;10.70;91.20;11.00;99892.00;;;;342848;28;89390;-90
2022/02/19 00:58:08;;;;;;;;;;;10.70;91.20;11.10;99901.00;;;;343549;28;83110;-90
2022/02/19 00:58:20;;;;;;;;;;;10.70;91.20;11.10;99898.00;;;;340086;28;90446;-90
2022/02/19 00:58:32;;;;;;;;;;;10.70;91.40;11.10;99906.00;;;;343173;28;83419;-90
2022/02/19 00:58:44;;;;;;;;;;;10.70;91.50;11.10;99907.00;;;;341384;28;89319;-90
2022/02/19 00:58:55;;;;;;;;;;;10.70;91.50;11.10;99905.00;;;;344675;28;83287;-90
2022/02/19 00:59:07;;;;;;;;;;;10.70;91.40;11.20;99899.00;;;;344177;28;91468;-90
2022/02/19 00:59:19;;;;;;;;;;;10.70;91.40;11.20;99897.00;;;;341951;28;83411;-90
2022/02/19 00:59:31;;;;;;;;;;;10.70;91.40;11.20;99894.00;;;;342927;28;91382;-90
2022/02/19 00:59:43;;;;;;;;;;;10.70;91.40;11.20;99901.00;;;;346093;28;83412;-90